This is the latest recevied weather packets stored in our database for station/object E24YPM-1. If no packets are shown the sender has not sent any weather packets the latest 10 day(s).
| Time | Temp. | Humidity | Pressure | Rain* | Wind** | Luminosity | Snow |
|---|---|---|---|---|---|---|---|
| 1777869035 | 36.67° C | 50% | 1005 hPa | - | - | 0 W/m² | - |
| 1777867181 | 36.67° C | 50% | 1006 hPa | - | - | 0 W/m² | - |
| 1777866197 | 36.67° C | 51% | 1006 hPa | - | - | 0 W/m² | - |
| 1777865282 | 36.67° C | 51% | 1006 hPa | - | - | 0 W/m² | - |
| 1777864369 | 36.11° C | 52% | 1006 hPa | - | - | 0 W/m² | - |
| 1777863453 | 36.11° C | 52% | 1006 hPa | - | - | 0 W/m² | - |
| 1777862537 | 35.56° C | 53% | 1006 hPa | - | - | 0 W/m² | - |
| 1777861622 | 35° C | 53% | 1006 hPa | - | - | 0 W/m² | - |
| 1777860708 | 35° C | 52% | 1006 hPa | - | - | 0 W/m² | - |
| 1777859792 | 35° C | 53% | 1006 hPa | - | - | 0 W/m² | - |
| 1777853121 | 33.89° C | 42% | 1005 hPa | - | - | 0 W/m² | - |
| 1777851148 | 33.33° C | 40% | 1005 hPa | - | - | 0 W/m² | - |
| 1777850230 | 33.33° C | 39% | 1004 hPa | - | - | 0 W/m² | - |
| 1777847735 | 32.78° C | 36% | 1004 hPa | - | - | 0 W/m² | - |
| 1777846822 | 32.78° C | 34% | 1004 hPa | - | - | 0 W/m² | - |
| 1777845104 | 31.67° C | 31% | 1003 hPa | - | - | 0 W/m² | - |
| 1777844250 | 31.11° C | 27% | 1003 hPa | - | - | 0 W/m² | - |
| 1777843272 | 30.56° C | 26% | 1003 hPa | - | - | 0 W/m² | - |
| 1777842360 | 30.56° C | 26% | 1003 hPa | - | - | 0 W/m² | - |
| 1777841448 | 30.56° C | 26% | 1003 hPa | - | - | 0 W/m² | - |
| 1777840535 | 31.11° C | 26% | 1003 hPa | - | - | 0 W/m² | - |
| 1777839623 | 31.11° C | 26% | 1003 hPa | - | - | 0 W/m² | - |
| 1777838708 | 31.11° C | 26% | 1003 hPa | - | - | 0 W/m² | - |
| 1777837795 | 31.11° C | 26% | 1003 hPa | - | - | 0 W/m² | - |
| 1777836879 | 31.11° C | 26% | 1003 hPa | - | - | 0 W/m² | - |
* Rain since midnight (hover to see other rain measurements)
** Current wind speed in m/s (hover to see current wind gust speed)